createdAt,value
2018-08-03T00:00:28.708Z,77.53
2018-08-03T00:02:58.073Z,78.26
2018-08-03T00:05:27.438Z,77.53
2018-08-03T00:07:56.810Z,77.23
2018-08-03T00:10:26.161Z,77.27
2018-08-03T00:12:55.529Z,77.32
2018-08-03T00:15:24.658Z,79.01
2018-08-03T00:17:54.039Z,78.68
2018-08-03T00:20:23.403Z,78.05
2018-08-03T00:22:52.822Z,78.40
2018-08-03T00:25:22.195Z,78.37
2018-08-03T00:27:51.576Z,78.65
2018-08-03T00:30:20.931Z,78.93
2018-08-03T00:32:50.041Z,79.44
2018-08-03T00:35:19.401Z,80.08
2018-08-03T00:37:48.767Z,79.27
2018-08-03T00:40:18.131Z,79.13
2018-08-03T00:42:47.249Z,80.12
2018-08-03T00:45:16.604Z,78.74
2018-08-03T00:47:45.988Z,77.93
2018-08-03T00:50:15.368Z,77.62
2018-08-03T00:52:44.732Z,78.04
2018-08-03T00:55:13.874Z,78.49
2018-08-03T00:57:43.240Z,76.99
2018-08-03T01:00:12.617Z,76.03
2018-08-03T01:02:41.944Z,77.06
2018-08-03T01:05:11.267Z,77.21
2018-08-03T01:07:40.604Z,79.09
2018-08-03T01:10:09.952Z,78.55
2018-08-03T01:12:39.279Z,79.64
2018-08-03T01:15:08.683Z,78.56
2018-08-03T01:17:38.009Z,79.62
2018-08-03T01:20:07.344Z,79.61
2018-08-03T01:22:36.749Z,79.36
2018-08-03T01:25:06.191Z,80.16
2018-08-03T01:27:35.552Z,79.01
2018-08-03T01:30:05.331Z,78.80
2018-08-03T01:32:34.649Z,79.69
2018-08-03T01:35:03.970Z,80.26
2018-08-03T01:37:33.297Z,79.86
2018-08-03T01:40:02.620Z,80.31
2018-08-03T01:42:31.952Z,80.41
2018-08-03T01:45:01.052Z,81.67
2018-08-03T01:47:30.380Z,81.42
2018-08-03T01:49:59.683Z,80.35
2018-08-03T01:52:29.032Z,80.51
2018-08-03T01:54:58.348Z,80.12
2018-08-03T01:57:27.680Z,79.57
2018-08-03T01:59:57.001Z,80.60
2018-08-03T02:02:26.436Z,79.44
2018-08-03T02:04:55.755Z,79.67
2018-08-03T02:07:25.073Z,79.51
2018-08-03T02:09:54.390Z,80.50
2018-08-03T02:12:23.708Z,80.42
2018-08-03T02:14:53.032Z,80.22
2018-08-03T02:17:22.373Z,80.95
2018-08-03T02:19:51.691Z,81.44
2018-08-03T02:22:21.002Z,80.79
2018-08-03T02:24:50.352Z,81.04
2018-08-03T02:27:19.684Z,80.85
2018-08-03T02:29:49.000Z,80.80
2018-08-03T02:32:18.369Z,81.59
2018-08-03T02:34:47.732Z,81.09
2018-08-03T02:37:17.088Z,81.91
2018-08-03T02:39:46.471Z,82.27
2018-08-03T02:42:15.819Z,81.26
2018-08-03T02:44:45.182Z,81.42
2018-08-03T02:47:14.531Z,81.23
2018-08-03T02:49:43.888Z,81.46
2018-08-03T02:52:13.263Z,80.21
2018-08-03T02:54:42.649Z,80.31
2018-08-03T02:57:12.008Z,81.34
2018-08-03T02:59:41.371Z,81.44
2018-08-03T03:02:10.485Z,81.34
2018-08-03T03:04:39.860Z,81.69
2018-08-03T03:07:09.225Z,81.36
2018-08-03T03:09:38.580Z,81.79
2018-08-03T03:12:09.146Z,81.76
2018-08-03T03:14:38.508Z,81.53
2018-08-03T03:17:07.630Z,81.42
2018-08-03T03:19:37.361Z,81.65
2018-08-03T03:22:06.835Z,81.07
2018-08-03T03:24:36.199Z,80.39
2018-08-03T03:27:05.620Z,81.34
2018-08-03T03:29:34.951Z,81.56
2018-08-03T03:32:04.309Z,82.52
2018-08-03T03:34:33.671Z,81.98
2018-08-03T03:37:03.033Z,82.57
2018-08-03T03:39:32.407Z,82.08
2018-08-03T03:42:01.769Z,82.18
2018-08-03T03:44:31.122Z,82.03
2018-08-03T03:47:00.487Z,82.43
2018-08-03T03:49:29.861Z,81.45
2018-08-03T03:51:59.225Z,81.22
2018-08-03T03:54:28.336Z,82.68
2018-08-03T03:56:57.683Z,83.17
2018-08-03T03:59:27.051Z,84.13
2018-08-03T04:01:56.403Z,84.48
2018-08-03T04:04:25.760Z,84.02
2018-08-03T04:06:55.114Z,82.12
2018-08-03T04:09:24.487Z,83.47
2018-08-03T04:11:53.835Z,83.33
2018-08-03T04:14:22.941Z,83.27
2018-08-03T04:16:52.315Z,82.19
2018-08-03T04:19:21.659Z,81.59
2018-08-03T04:21:51.035Z,82.76
2018-08-03T04:24:20.136Z,81.59
2018-08-03T04:26:49.503Z,83.17
2018-08-03T04:29:18.897Z,82.47
2018-08-03T04:31:48.279Z,80.62
2018-08-03T04:34:17.666Z,80.80
2018-08-03T04:36:47.063Z,81.69
2018-08-03T04:39:16.448Z,80.57
2018-08-03T04:41:45.848Z,81.24
2018-08-03T04:44:14.967Z,82.11
2018-08-03T04:46:44.343Z,81.56
2018-08-03T04:49:13.733Z,82.19
2018-08-03T04:51:42.866Z,82.28
2018-08-03T04:54:12.255Z,84.29
2018-08-03T04:56:41.662Z,83.88
2018-08-03T04:59:11.038Z,83.71
2018-08-03T05:01:40.168Z,83.39
2018-08-03T05:04:09.655Z,83.54
2018-08-03T05:06:39.065Z,84.02
2018-08-03T05:09:08.775Z,83.92
2018-08-03T05:11:38.193Z,84.21
2018-08-03T05:14:08.802Z,84.68
2018-08-03T05:16:38.191Z,83.99
2018-08-03T05:19:07.670Z,83.31
2018-08-03T05:21:37.090Z,83.44
2018-08-03T05:24:06.491Z,83.40
2018-08-03T05:26:35.867Z,82.39
2018-08-03T05:29:05.343Z,83.38
2018-08-03T05:31:34.715Z,82.76
2018-08-03T05:34:04.084Z,83.26
2018-08-03T05:36:33.452Z,82.44
2018-08-03T05:39:02.947Z,81.51
2018-08-03T05:41:32.327Z,81.98
2018-08-03T05:44:01.693Z,81.64
2018-08-03T05:46:31.064Z,81.88
2018-08-03T05:49:00.449Z,81.47
2018-08-03T05:51:29.828Z,81.70
2018-08-03T05:53:59.195Z,80.14
2018-08-03T05:56:28.754Z,79.55
2018-08-03T05:58:58.129Z,79.89
2018-08-03T06:01:27.251Z,80.13
2018-08-03T06:03:56.671Z,80.00
2018-08-03T06:06:25.753Z,79.39
2018-08-03T06:08:55.114Z,79.26
2018-08-03T06:11:24.498Z,78.64
2018-08-03T06:13:53.866Z,78.36
2018-08-03T06:16:23.206Z,78.28
2018-08-03T06:18:52.579Z,76.67
2018-08-03T06:21:21.959Z,76.00
2018-08-03T06:23:51.323Z,75.04
2018-08-03T06:26:20.435Z,75.79
2018-08-03T06:28:49.850Z,74.86
2018-08-03T06:31:19.246Z,74.01
2018-08-03T06:33:49.091Z,73.12
2018-08-03T06:36:18.565Z,73.37
2018-08-03T06:38:47.967Z,72.74
2018-08-03T06:41:17.364Z,72.47
2018-08-03T06:43:46.770Z,71.60
2018-08-03T06:46:16.154Z,70.53
2018-08-03T06:48:45.282Z,70.34
2018-08-03T06:51:14.677Z,70.41
2018-08-03T06:53:44.164Z,70.24
2018-08-03T06:56:13.498Z,68.19
2018-08-03T06:58:42.903Z,67.44
2018-08-03T07:01:12.275Z,68.25
2018-08-03T07:03:41.674Z,66.88
2018-08-03T07:06:11.062Z,67.27
2018-08-03T07:08:40.215Z,68.40
2018-08-03T07:11:09.712Z,66.54
2018-08-03T07:13:39.107Z,66.89
2018-08-03T07:16:09.475Z,67.74
2018-08-03T07:18:38.866Z,67.52
2018-08-03T07:21:08.288Z,67.31
2018-08-03T07:23:37.695Z,65.43
2018-08-03T07:26:06.862Z,65.03
2018-08-03T07:28:36.244Z,62.87
2018-08-03T07:31:05.597Z,63.58
2018-08-03T07:33:34.716Z,63.63
2018-08-03T07:36:04.082Z,62.97
2018-08-03T07:38:33.470Z,62.68
2018-08-03T07:41:02.815Z,63.11
2018-08-03T07:43:32.277Z,63.50
2018-08-03T07:46:01.564Z,62.62
2018-08-03T07:48:30.959Z,61.40
2018-08-03T07:51:00.316Z,59.66
2018-08-03T07:53:29.803Z,59.70
2018-08-03T07:55:58.964Z,59.40
2018-08-03T07:58:28.381Z,59.46
2018-08-03T08:00:57.822Z,60.28
2018-08-03T08:03:27.191Z,58.25
2018-08-03T08:05:56.570Z,59.41
2018-08-03T08:08:26.151Z,58.93
2018-08-03T08:10:55.527Z,57.92
2018-08-03T08:13:24.924Z,57.46
2018-08-03T08:15:54.038Z,56.96
2018-08-03T08:18:23.418Z,56.13
2018-08-03T08:20:52.790Z,57.43
2018-08-03T08:23:22.177Z,57.86
2018-08-03T08:25:51.534Z,56.93
2018-08-03T08:28:20.926Z,57.22
2018-08-03T08:30:50.078Z,57.33
2018-08-03T08:33:19.470Z,56.74
2018-08-03T08:35:48.880Z,55.05
2018-08-03T08:38:18.285Z,55.30
2018-08-03T08:40:47.710Z,55.16
2018-08-03T08:43:17.128Z,55.59
2018-08-03T08:45:46.514Z,54.75
2018-08-03T08:48:15.918Z,52.87
2018-08-03T08:50:45.306Z,52.34
2018-08-03T08:53:14.733Z,52.79
2018-08-03T08:55:44.112Z,51.17
2018-08-03T08:58:13.487Z,50.93
2018-08-03T09:00:42.873Z,50.99
2018-08-03T09:03:12.267Z,51.16
2018-08-03T09:05:41.683Z,51.20
2018-08-03T09:08:11.111Z,49.94
2018-08-03T09:10:40.511Z,50.61
2018-08-03T09:13:09.959Z,49.92
2018-08-03T09:15:39.287Z,48.24
2018-08-03T09:18:09.220Z,47.99
2018-08-03T09:20:38.719Z,48.24
2018-08-03T09:23:08.131Z,47.02
2018-08-03T09:25:37.532Z,49.11
2018-08-03T09:28:07.290Z,47.10
2018-08-03T09:30:36.703Z,46.31
2018-08-03T09:33:06.179Z,46.60
2018-08-03T09:35:35.600Z,46.33
2018-08-03T09:38:05.021Z,44.80
2018-08-03T09:40:34.422Z,44.06
2018-08-03T09:43:03.883Z,45.70
2018-08-03T09:45:33.283Z,46.04
2018-08-03T09:48:02.675Z,44.44
2018-08-03T09:50:32.071Z,44.22
2018-08-03T09:53:01.478Z,42.82
2018-08-03T09:55:30.871Z,42.58
2018-08-03T09:58:00.262Z,42.45
2018-08-03T10:00:34.880Z,44.57
2018-08-03T10:03:04.266Z,43.05
2018-08-03T10:05:33.678Z,44.68
2018-08-03T10:08:03.070Z,44.70
2018-08-03T10:10:32.466Z,44.59
2018-08-03T10:13:01.872Z,44.56
2018-08-03T10:15:31.291Z,46.02
2018-08-03T10:18:00.689Z,45.04
2018-08-03T10:20:30.082Z,44.04
2018-08-03T10:22:59.489Z,43.96
2018-08-03T10:25:28.880Z,43.74
2018-08-03T10:27:58.307Z,43.12
2018-08-03T10:30:27.688Z,44.51
2018-08-03T10:32:57.104Z,43.72
2018-08-03T10:35:26.487Z,43.85
2018-08-03T10:37:55.887Z,43.77
2018-08-03T10:40:25.035Z,44.00
2018-08-03T10:42:54.522Z,43.78
2018-08-03T10:45:23.815Z,43.24
2018-08-03T10:47:53.231Z,44.08
2018-08-03T10:50:22.707Z,43.67
2018-08-03T10:52:52.103Z,43.11
2018-08-03T10:55:21.509Z,43.54
2018-08-03T10:57:50.906Z,44.47
2018-08-03T11:00:28.750Z,44.34
2018-08-03T11:02:58.639Z,43.40
2018-08-03T11:05:28.642Z,41.40
2018-08-03T11:07:58.116Z,40.25
2018-08-03T11:10:27.499Z,40.96
2018-08-03T11:12:56.914Z,39.37
2018-08-03T11:15:26.291Z,39.30
2018-08-03T11:17:55.685Z,38.04
2018-08-03T11:20:25.072Z,38.45
2018-08-03T11:22:54.466Z,37.33
2018-08-03T11:25:23.860Z,40.29
2018-08-03T11:27:53.271Z,39.22
2018-08-03T11:30:22.703Z,38.97
2018-08-03T11:32:52.100Z,40.22
2018-08-03T11:35:21.474Z,36.62
2018-08-03T11:37:50.882Z,37.84
2018-08-03T11:40:20.268Z,37.10
2018-08-03T11:42:50.474Z,35.42
2018-08-03T11:45:19.875Z,38.88
2018-08-03T11:47:48.998Z,38.25
2018-08-03T11:50:18.387Z,37.05
2018-08-03T11:52:47.803Z,40.45
2018-08-03T11:55:17.179Z,38.36
2018-08-03T11:57:46.307Z,37.18
2018-08-03T12:00:15.699Z,35.10
2018-08-03T12:02:45.102Z,34.66
2018-08-03T12:05:14.488Z,34.55
2018-08-03T12:07:43.888Z,34.09
2018-08-03T12:10:13.268Z,38.62
2018-08-03T12:12:42.402Z,36.26
2018-08-03T12:15:11.772Z,34.97
2018-08-03T12:17:40.900Z,0.00
2018-08-03T12:20:10.500Z,33.63
2018-08-03T12:22:39.921Z,31.43
2018-08-03T12:25:09.315Z,30.95
2018-08-03T12:27:38.691Z,33.70
2018-08-03T12:30:09.036Z,30.65
2018-08-03T12:32:38.391Z,30.38
2018-08-03T12:35:07.760Z,33.18
2018-08-03T12:37:37.115Z,31.77
2018-08-03T12:40:06.494Z,34.13
2018-08-03T12:42:35.879Z,32.99
2018-08-03T12:45:05.503Z,33.27
2018-08-03T12:47:34.880Z,33.92
2018-08-03T12:50:04.358Z,32.99
2018-08-03T12:52:33.770Z,33.18
2018-08-03T12:55:03.079Z,33.42
2018-08-03T12:57:32.454Z,32.13
2018-08-03T13:00:01.831Z,34.24
2018-08-03T13:02:31.216Z,33.94
2018-08-03T13:05:00.591Z,33.03
2018-08-03T13:07:29.995Z,32.46
2018-08-03T13:09:59.296Z,33.10
2018-08-03T13:12:28.638Z,33.27
2018-08-03T13:14:58.059Z,34.15
2018-08-03T13:17:27.351Z,33.58
2018-08-03T13:19:56.490Z,30.29
2018-08-03T13:22:25.847Z,30.34
2018-08-03T13:24:55.224Z,29.81
2018-08-03T13:27:24.656Z,26.66
2018-08-03T13:29:53.986Z,25.89
2018-08-03T13:32:23.344Z,27.96
2018-08-03T13:34:52.512Z,25.60
2018-08-03T13:37:21.859Z,29.01
2018-08-03T13:39:51.347Z,28.89
2018-08-03T13:42:22.792Z,28.98
2018-08-03T13:44:52.179Z,28.42
2018-08-03T13:47:21.601Z,25.42
2018-08-03T13:49:51.015Z,28.55
2018-08-03T13:52:20.343Z,29.15
2018-08-03T13:54:49.751Z,26.15
2018-08-03T13:57:19.110Z,25.69
2018-08-03T13:59:48.227Z,26.53
2018-08-03T14:02:27.318Z,28.42
2018-08-03T14:04:56.962Z,28.14
2018-08-03T14:07:27.399Z,26.58
2018-08-03T14:09:56.755Z,27.79
2018-08-03T14:12:26.089Z,23.54
2018-08-03T14:14:55.438Z,25.37
2018-08-03T14:17:24.836Z,27.28
2018-08-03T14:19:54.187Z,24.49
2018-08-03T14:22:23.632Z,25.55
2018-08-03T14:24:53.000Z,25.74
2018-08-03T14:27:22.423Z,26.37
2018-08-03T14:29:51.855Z,27.17
2018-08-03T14:32:21.273Z,22.97
2018-08-03T14:34:50.663Z,23.77
2018-08-03T14:37:20.090Z,25.22
2018-08-03T14:39:49.491Z,25.19
2018-08-03T14:42:18.910Z,24.15
2018-08-03T14:44:48.076Z,25.85
2018-08-03T14:47:17.512Z,24.97
2018-08-03T14:49:46.959Z,25.32
2018-08-03T14:52:16.369Z,24.03
2018-08-03T14:54:45.817Z,22.51
2018-08-03T14:57:14.986Z,24.70
2018-08-03T14:59:44.379Z,25.81
2018-08-03T15:02:13.792Z,26.22
2018-08-03T15:04:43.179Z,24.65
2018-08-03T15:07:12.566Z,24.99
2018-08-03T15:09:41.954Z,24.52
2018-08-03T15:12:11.379Z,24.79
2018-08-03T15:14:40.773Z,23.75
2018-08-03T15:17:10.192Z,21.25
2018-08-03T15:19:39.639Z,23.54
2018-08-03T15:22:09.551Z,23.13
2018-08-03T15:24:38.975Z,25.08
2018-08-03T15:27:08.464Z,24.71
2018-08-03T15:29:37.907Z,21.13
2018-08-03T15:32:07.307Z,24.50
2018-08-03T15:34:36.704Z,24.40
2018-08-03T15:37:06.095Z,21.99
2018-08-03T15:39:35.493Z,22.91
2018-08-03T15:42:04.883Z,24.20
2018-08-03T15:44:34.317Z,21.54
2018-08-03T15:47:04.104Z,22.93
2018-08-03T15:49:33.524Z,24.05
2018-08-03T15:52:02.939Z,23.98
2018-08-03T15:54:32.319Z,24.75
2018-08-03T15:57:01.683Z,24.35
2018-08-03T15:59:30.778Z,24.13
2018-08-03T16:01:59.881Z,23.80
2018-08-03T16:04:29.243Z,22.28
2018-08-03T16:06:58.634Z,23.53
2018-08-03T16:09:27.990Z,24.41
2018-08-03T16:11:57.355Z,24.40
2018-08-03T16:14:26.691Z,23.54
2018-08-03T16:16:56.048Z,23.82
2018-08-03T16:19:25.425Z,24.18
2018-08-03T16:21:54.791Z,24.70
2018-08-03T16:24:24.145Z,25.12
2018-08-03T16:26:53.498Z,22.47
2018-08-03T16:29:22.862Z,24.40
2018-08-03T16:31:52.219Z,23.34
2018-08-03T16:34:21.572Z,24.21
2018-08-03T16:36:50.948Z,25.32
2018-08-03T16:39:20.300Z,25.30
2018-08-03T16:41:49.667Z,24.94
2018-08-03T16:44:19.040Z,25.36
2018-08-03T16:46:48.408Z,25.97
2018-08-03T16:49:17.764Z,25.67
2018-08-03T16:51:47.106Z,24.75
2018-08-03T16:54:16.216Z,25.35
2018-08-03T16:56:45.607Z,25.62
2018-08-03T16:59:14.964Z,27.03
2018-08-03T17:01:44.323Z,26.67
2018-08-03T17:04:13.663Z,26.53
2018-08-03T17:06:43.009Z,26.08
2018-08-03T17:09:12.366Z,26.87
2018-08-03T17:54:19.853Z,30.67
2018-08-03T17:56:49.238Z,31.36
2018-08-03T17:59:18.598Z,31.87
2018-08-03T18:01:47.963Z,32.74
2018-08-03T18:04:17.326Z,33.37
2018-08-03T18:06:46.699Z,33.56
2018-08-03T18:09:16.075Z,33.88
2018-08-03T18:11:45.184Z,33.89
2018-08-03T18:14:14.290Z,34.56
2018-08-03T18:16:43.655Z,35.19
2018-08-03T18:19:13.014Z,35.33
2018-08-03T18:21:42.387Z,35.40
2018-08-03T18:24:11.491Z,36.46
2018-08-03T18:26:40.835Z,36.32
2018-08-03T18:29:10.265Z,36.65
2018-08-03T18:31:39.559Z,37.05
2018-08-03T18:34:08.952Z,37.44
2018-08-03T18:36:38.313Z,38.22
2018-08-03T18:39:10.054Z,38.88
2018-08-03T18:41:39.505Z,39.54
2018-08-03T18:44:08.923Z,40.17
2018-08-03T18:46:38.275Z,40.25
2018-08-03T18:49:07.747Z,41.07
2018-08-03T18:51:37.111Z,40.84
2018-08-03T18:54:06.562Z,40.46
2018-08-03T18:56:35.930Z,40.67
2018-08-03T18:59:05.589Z,40.68
2018-08-03T19:01:34.956Z,40.40
2018-08-03T19:04:04.086Z,40.33
2018-08-03T19:06:33.451Z,40.56
2018-08-03T19:09:02.560Z,39.51
2018-08-03T19:11:31.922Z,40.39
2018-08-03T19:14:01.298Z,41.11
2018-08-03T19:16:30.662Z,42.55
2018-08-03T19:19:00.039Z,44.14
2018-08-03T19:21:29.394Z,45.94
2018-08-03T19:23:58.895Z,46.52
2018-08-03T19:26:28.278Z,47.00
2018-08-03T19:28:57.672Z,46.79
2018-08-03T19:31:26.787Z,48.25
2018-08-03T19:33:56.160Z,48.49
2018-08-03T19:36:25.525Z,49.75
2018-08-03T19:38:54.893Z,50.19
2018-08-03T19:41:24.256Z,50.73
2018-08-03T19:43:53.718Z,51.11
2018-08-03T19:46:23.092Z,51.16
2018-08-03T19:48:52.597Z,51.33
2018-08-03T19:51:21.958Z,52.34
2018-08-03T19:53:51.330Z,52.03
2018-08-03T19:56:20.683Z,53.03
2018-08-03T19:58:49.930Z,52.85
2018-08-03T20:01:19.187Z,52.51
2018-08-03T20:03:48.916Z,52.47
2018-08-03T20:06:18.514Z,51.67
2018-08-03T20:08:47.900Z,51.88
2018-08-03T20:11:17.030Z,52.05
2018-08-03T20:13:46.493Z,52.23
2018-08-03T20:16:15.776Z,52.45
2018-08-03T20:18:45.148Z,52.49
2018-08-03T20:21:14.511Z,51.93
2018-08-03T20:23:43.886Z,52.68
2018-08-03T20:26:13.243Z,53.04
2018-08-03T20:28:42.656Z,52.35
2018-08-03T20:31:12.068Z,53.27
2018-08-03T20:33:41.455Z,53.18
2018-08-03T20:36:10.855Z,52.89
2018-08-03T20:38:40.243Z,55.30
2018-08-03T20:41:09.686Z,55.68
2018-08-03T20:43:39.034Z,55.59
2018-08-03T20:46:08.738Z,56.45
2018-08-03T20:48:38.126Z,56.83
2018-08-03T20:51:07.515Z,56.90
2018-08-03T20:53:36.902Z,57.04
2018-08-03T20:56:06.410Z,57.95
2018-08-03T20:58:35.806Z,58.07
2018-08-03T21:01:05.210Z,57.98
2018-08-03T21:03:34.606Z,59.58
2018-08-03T21:06:04.179Z,57.93
2018-08-03T21:08:33.594Z,58.23
2018-08-03T21:11:03.004Z,57.58
2018-08-03T21:13:32.390Z,58.44
2018-08-03T21:16:01.789Z,58.10
2018-08-03T21:18:31.195Z,59.16
2018-08-03T21:21:00.595Z,58.94
2018-08-03T21:23:29.994Z,59.47
2018-08-03T21:25:59.403Z,59.88
2018-08-03T21:28:28.784Z,61.64
2018-08-03T21:30:58.159Z,62.48
2018-08-03T21:33:27.272Z,63.11
2018-08-03T21:35:56.638Z,62.79
2018-08-03T21:38:25.998Z,61.90
2018-08-03T21:40:55.368Z,62.46
2018-08-03T21:43:24.728Z,61.67
2018-08-03T21:45:54.088Z,61.06
2018-08-03T21:48:23.456Z,61.16
2018-08-03T21:50:52.810Z,61.12
2018-08-03T21:53:22.174Z,61.52
2018-08-03T21:55:51.294Z,61.84
2018-08-03T21:58:20.670Z,62.80
2018-08-03T22:00:50.044Z,62.10
2018-08-03T22:03:19.394Z,63.75
2018-08-03T22:05:48.755Z,63.33
2018-08-03T22:08:18.126Z,62.55
2018-08-03T22:10:47.498Z,63.79
2018-08-03T22:13:16.874Z,63.69
2018-08-03T22:15:46.007Z,64.13
2018-08-03T22:18:15.388Z,63.97
2018-08-03T22:20:44.763Z,64.62
2018-08-03T22:23:14.129Z,63.97
2018-08-03T22:25:43.487Z,63.32
2018-08-03T22:28:12.622Z,63.24
2018-08-03T22:30:42.011Z,62.96
2018-08-03T22:33:11.423Z,63.48
2018-08-03T22:35:40.870Z,64.29
2018-08-03T22:38:10.274Z,65.05
2018-08-03T22:40:39.678Z,66.22
2018-08-03T22:43:09.164Z,66.02
2018-08-03T22:45:38.612Z,65.84
2018-08-03T22:48:08.050Z,66.73
2018-08-03T22:50:37.831Z,66.58
2018-08-03T22:53:07.312Z,66.15
2018-08-03T22:55:36.443Z,65.87
2018-08-03T22:58:05.923Z,65.46
2018-08-03T23:00:35.051Z,65.55
2018-08-03T23:03:04.414Z,65.04
2018-08-03T23:05:33.810Z,64.87
2018-08-03T23:08:02.958Z,63.67
2018-08-03T23:10:32.286Z,63.41
2018-08-03T23:13:01.655Z,64.59
2018-08-03T23:15:31.044Z,66.05
2018-08-03T23:18:00.412Z,66.45
2018-08-03T23:20:29.526Z,68.05
2018-08-03T23:22:58.907Z,67.62
2018-08-03T23:25:28.022Z,67.64
2018-08-03T23:27:57.742Z,67.97
2018-08-03T23:30:27.110Z,67.58
2018-08-03T23:32:56.234Z,67.93
2018-08-03T23:35:25.654Z,68.15
2018-08-03T23:37:55.021Z,67.44
2018-08-03T23:40:24.130Z,67.64
2018-08-03T23:42:53.516Z,68.16
2018-08-03T23:45:22.635Z,68.22
2018-08-03T23:47:52.014Z,68.61
2018-08-03T23:50:21.126Z,68.63
2018-08-03T23:52:50.558Z,68.37
2018-08-03T23:55:19.930Z,67.91
2018-08-03T23:57:49.299Z,67.75
